Airport View

Enter AWOS ICAO identifier for current METAR.

ex. KFNL

KSUN 080451Z 25007KT 10SM SKC 17/M02 A3004

8 Jul 2020 05:43

Frequency: 128.225

Phone: 208-788-9213

Other Area AWOS: KJER - KSNT - KLLJ - KTWF

TAF AMD KSUN 080335Z 0804/0906 22011KT P6SM SKC FM080500 33007KT P6SM SKC FM081500 12005KT P6SM SKC FM082000 21010G20KT P6SM SKC AMD LTD TO CLD VIS AND WIND 0806/0814